sensor_id;sensor_type;location;lat;lon;timestamp;P1;durP1;ratioP1;P2;durP2;ratioP2
7773;SDS011;3931;42.260;23.116;2023-03-13T00:00:15;6.10;;;3.73;;
7773;SDS011;3931;42.260;23.116;2023-03-13T00:02:43;8.50;;;4.17;;
7773;SDS011;3931;42.260;23.116;2023-03-13T00:05:10;4.23;;;3.50;;
7773;SDS011;3931;42.260;23.116;2023-03-13T00:07:36;6.90;;;3.83;;
7773;SDS011;3931;42.260;23.116;2023-03-13T00:10:03;6.53;;;3.70;;
7773;SDS011;3931;42.260;23.116;2023-03-13T00:12:29;5.10;;;3.00;;
7773;SDS011;3931;42.260;23.116;2023-03-13T00:14:55;7.90;;;4.03;;
7773;SDS011;3931;42.260;23.116;2023-03-13T00:17:21;10.30;;;5.43;;
7773;SDS011;3931;42.260;23.116;2023-03-13T00:19:48;8.10;;;4.60;;
7773;SDS011;3931;42.260;23.116;2023-03-13T00:22:15;6.40;;;4.17;;
7773;SDS011;3931;42.260;23.116;2023-03-13T00:24:41;7.73;;;4.70;;
7773;SDS011;3931;42.260;23.116;2023-03-13T00:27:07;7.97;;;4.50;;
7773;SDS011;3931;42.260;23.116;2023-03-13T00:29:33;5.97;;;3.60;;
7773;SDS011;3931;42.260;23.116;2023-03-13T00:32:00;12.53;;;4.27;;
7773;SDS011;3931;42.260;23.116;2023-03-13T00:34:26;7.20;;;4.27;;
7773;SDS011;3931;42.260;23.116;2023-03-13T00:36:52;14.03;;;5.80;;
7773;SDS011;3931;42.260;23.116;2023-03-13T00:39:19;7.87;;;4.40;;
7773;SDS011;3931;42.260;23.116;2023-03-13T00:41:46;8.70;;;5.13;;
7773;SDS011;3931;42.260;23.116;2023-03-13T00:44:12;9.70;;;5.03;;
7773;SDS011;3931;42.260;23.116;2023-03-13T00:46:39;8.67;;;5.43;;
7773;SDS011;3931;42.260;23.116;2023-03-13T00:49:05;6.50;;;4.27;;
7773;SDS011;3931;42.260;23.116;2023-03-13T00:51:31;5.87;;;3.70;;
7773;SDS011;3931;42.260;23.116;2023-03-13T00:53:57;7.43;;;4.67;;
7773;SDS011;3931;42.260;23.116;2023-03-13T00:56:25;7.97;;;4.10;;
7773;SDS011;3931;42.260;23.116;2023-03-13T00:58:52;6.83;;;4.00;;
7773;SDS011;3931;42.260;23.116;2023-03-13T01:01:19;9.40;;;4.37;;
7773;SDS011;3931;42.260;23.116;2023-03-13T01:03:47;7.87;;;5.27;;
7773;SDS011;3931;42.260;23.116;2023-03-13T01:06:15;8.60;;;4.80;;
7773;SDS011;3931;42.260;23.116;2023-03-13T01:08:42;8.70;;;5.53;;
7773;SDS011;3931;42.260;23.116;2023-03-13T01:11:09;9.63;;;4.53;;
7773;SDS011;3931;42.260;23.116;2023-03-13T01:13:36;15.63;;;7.43;;
7773;SDS011;3931;42.260;23.116;2023-03-13T01:16:05;15.57;;;7.30;;
7773;SDS011;3931;42.260;23.116;2023-03-13T01:18:32;12.53;;;6.80;;
7773;SDS011;3931;42.260;23.116;2023-03-13T01:20:59;21.93;;;8.30;;
7773;SDS011;3931;42.260;23.116;2023-03-13T01:23:25;20.03;;;7.70;;
7773;SDS011;3931;42.260;23.116;2023-03-13T01:25:52;13.80;;;6.70;;
7773;SDS011;3931;42.260;23.116;2023-03-13T01:28:19;13.57;;;5.90;;
7773;SDS011;3931;42.260;23.116;2023-03-13T01:30:45;9.90;;;5.83;;
7773;SDS011;3931;42.260;23.116;2023-03-13T01:33:12;11.63;;;5.60;;
7773;SDS011;3931;42.260;23.116;2023-03-13T01:35:38;10.00;;;5.57;;
7773;SDS011;3931;42.260;23.116;2023-03-13T01:38:04;8.77;;;4.10;;
7773;SDS011;3931;42.260;23.116;2023-03-13T01:40:30;7.80;;;4.53;;
7773;SDS011;3931;42.260;23.116;2023-03-13T01:42:56;10.30;;;4.90;;
7773;SDS011;3931;42.260;23.116;2023-03-13T01:48:20;45.17;;;20.27;;
7773;SDS011;3931;42.260;23.116;2023-03-13T01:50:50;54.03;;;23.53;;
7773;SDS011;3931;42.260;23.116;2023-03-13T01:53:17;57.53;;;22.87;;
7773;SDS011;3931;42.260;23.116;2023-03-13T01:55:43;43.10;;;18.83;;
7773;SDS011;3931;42.260;23.116;2023-03-13T01:58:09;51.93;;;19.60;;
7773;SDS011;3931;42.260;23.116;2023-03-13T02:00:36;55.90;;;18.13;;
7773;SDS011;3931;42.260;23.116;2023-03-13T02:03:05;26.00;;;11.57;;
7773;SDS011;3931;42.260;23.116;2023-03-13T02:05:34;44.90;;;16.23;;
7773;SDS011;3931;42.260;23.116;2023-03-13T02:08:02;26.57;;;11.93;;
7773;SDS011;3931;42.260;23.116;2023-03-13T02:10:33;22.30;;;8.10;;
7773;SDS011;3931;42.260;23.116;2023-03-13T02:13:04;19.90;;;8.80;;
7773;SDS011;3931;42.260;23.116;2023-03-13T02:15:30;17.47;;;8.73;;
7773;SDS011;3931;42.260;23.116;2023-03-13T02:17:56;27.80;;;11.03;;
7773;SDS011;3931;42.260;23.116;2023-03-13T02:20:24;12.80;;;6.83;;
7773;SDS011;3931;42.260;23.116;2023-03-13T02:22:52;10.33;;;6.13;;
7773;SDS011;3931;42.260;23.116;2023-03-13T02:25:32;16.20;;;7.40;;
7773;SDS011;3931;42.260;23.116;2023-03-13T02:28:03;32.17;;;13.73;;
7773;SDS011;3931;42.260;23.116;2023-03-13T02:30:32;26.67;;;10.60;;
7773;SDS011;3931;42.260;23.116;2023-03-13T02:32:59;35.53;;;11.27;;
7773;SDS011;3931;42.260;23.116;2023-03-13T02:35:25;43.37;;;15.73;;
7773;SDS011;3931;42.260;23.116;2023-03-13T02:37:53;51.13;;;13.77;;
7773;SDS011;3931;42.260;23.116;2023-03-13T02:40:23;15.03;;;8.67;;
7773;SDS011;3931;42.260;23.116;2023-03-13T02:42:53;9.97;;;5.33;;
7773;SDS011;3931;42.260;23.116;2023-03-13T02:45:20;13.10;;;6.33;;
7773;SDS011;3931;42.260;23.116;2023-03-13T02:47:46;11.57;;;5.20;;
7773;SDS011;3931;42.260;23.116;2023-03-13T02:50:12;5.77;;;3.43;;
7773;SDS011;3931;42.260;23.116;2023-03-13T02:52:40;6.57;;;4.23;;
7773;SDS011;3931;42.260;23.116;2023-03-13T02:55:11;12.00;;;3.90;;
7773;SDS011;3931;42.260;23.116;2023-03-13T02:57:42;6.50;;;3.70;;
7773;SDS011;3931;42.260;23.116;2023-03-13T03:00:09;6.23;;;4.33;;
7773;SDS011;3931;42.260;23.116;2023-03-13T03:02:37;8.50;;;4.53;;
7773;SDS011;3931;42.260;23.116;2023-03-13T03:05:03;12.27;;;3.80;;
7773;SDS011;3931;42.260;23.116;2023-03-13T03:07:29;7.13;;;4.00;;
7773;SDS011;3931;42.260;23.116;2023-03-13T03:09:55;6.73;;;4.00;;
7773;SDS011;3931;42.260;23.116;2023-03-13T03:12:21;5.57;;;3.73;;
7773;SDS011;3931;42.260;23.116;2023-03-13T03:14:47;7.90;;;4.43;;
7773;SDS011;3931;42.260;23.116;2023-03-13T03:17:14;11.27;;;6.60;;
7773;SDS011;3931;42.260;23.116;2023-03-13T03:19:40;14.50;;;7.60;;
7773;SDS011;3931;42.260;23.116;2023-03-13T03:22:06;11.93;;;7.63;;
7773;SDS011;3931;42.260;23.116;2023-03-13T03:24:32;10.83;;;6.37;;
7773;SDS011;3931;42.260;23.116;2023-03-13T03:26:58;16.57;;;7.70;;
7773;SDS011;3931;42.260;23.116;2023-03-13T03:29:25;19.40;;;7.40;;
7773;SDS011;3931;42.260;23.116;2023-03-13T03:31:51;11.80;;;6.23;;
7773;SDS011;3931;42.260;23.116;2023-03-13T03:34:18;15.97;;;6.47;;
7773;SDS011;3931;42.260;23.116;2023-03-13T03:36:44;11.50;;;5.97;;
7773;SDS011;3931;42.260;23.116;2023-03-13T03:39:11;11.10;;;6.10;;
7773;SDS011;3931;42.260;23.116;2023-03-13T03:41:37;12.43;;;5.80;;
7773;SDS011;3931;42.260;23.116;2023-03-13T03:44:03;17.77;;;7.70;;
7773;SDS011;3931;42.260;23.116;2023-03-13T03:46:29;12.87;;;6.73;;
7773;SDS011;3931;42.260;23.116;2023-03-13T03:48:55;25.87;;;13.17;;
7773;SDS011;3931;42.260;23.116;2023-03-13T03:51:22;32.60;;;17.33;;
7773;SDS011;3931;42.260;23.116;2023-03-13T03:53:48;27.20;;;12.50;;
7773;SDS011;3931;42.260;23.116;2023-03-13T03:56:14;14.53;;;8.90;;
7773;SDS011;3931;42.260;23.116;2023-03-13T03:58:40;18.03;;;7.57;;
7773;SDS011;3931;42.260;23.116;2023-03-13T04:01:06;19.90;;;7.43;;
7773;SDS011;3931;42.260;23.116;2023-03-13T04:03:32;16.63;;;7.80;;
7773;SDS011;3931;42.260;23.116;2023-03-13T04:05:58;13.20;;;7.30;;
7773;SDS011;3931;42.260;23.116;2023-03-13T04:08:25;12.60;;;6.80;;
7773;SDS011;3931;42.260;23.116;2023-03-13T04:10:51;15.07;;;7.60;;
7773;SDS011;3931;42.260;23.116;2023-03-13T04:13:17;8.90;;;4.43;;
7773;SDS011;3931;42.260;23.116;2023-03-13T04:15:43;14.10;;;6.23;;
7773;SDS011;3931;42.260;23.116;2023-03-13T04:18:10;16.80;;;7.00;;
7773;SDS011;3931;42.260;23.116;2023-03-13T04:20:36;13.40;;;7.27;;
7773;SDS011;3931;42.260;23.116;2023-03-13T04:23:02;11.00;;;5.80;;
7773;SDS011;3931;42.260;23.116;2023-03-13T04:25:29;20.57;;;9.60;;
7773;SDS011;3931;42.260;23.116;2023-03-13T04:27:55;17.10;;;7.13;;
7773;SDS011;3931;42.260;23.116;2023-03-13T04:30:21;17.23;;;7.43;;
7773;SDS011;3931;42.260;23.116;2023-03-13T04:32:47;22.97;;;6.90;;
7773;SDS011;3931;42.260;23.116;2023-03-13T04:35:15;22.10;;;8.10;;
7773;SDS011;3931;42.260;23.116;2023-03-13T04:37:41;19.00;;;7.80;;
7773;SDS011;3931;42.260;23.116;2023-03-13T04:40:08;43.30;;;17.70;;
7773;SDS011;3931;42.260;23.116;2023-03-13T04:42:35;42.40;;;15.43;;
7773;SDS011;3931;42.260;23.116;2023-03-13T04:45:01;64.83;;;10.80;;
7773;SDS011;3931;42.260;23.116;2023-03-13T04:47:27;15.80;;;6.57;;
7773;SDS011;3931;42.260;23.116;2023-03-13T04:49:53;14.63;;;6.70;;
7773;SDS011;3931;42.260;23.116;2023-03-13T04:52:19;10.33;;;5.10;;
7773;SDS011;3931;42.260;23.116;2023-03-13T04:54:46;11.80;;;5.27;;
7773;SDS011;3931;42.260;23.116;2023-03-13T04:57:12;11.70;;;5.23;;
7773;SDS011;3931;42.260;23.116;2023-03-13T04:59:39;14.60;;;6.40;;
7773;SDS011;3931;42.260;23.116;2023-03-13T05:02:05;16.10;;;8.47;;
7773;SDS011;3931;42.260;23.116;2023-03-13T05:04:31;24.10;;;7.70;;
7773;SDS011;3931;42.260;23.116;2023-03-13T05:06:57;16.40;;;7.43;;
7773;SDS011;3931;42.260;23.116;2023-03-13T05:09:23;15.70;;;8.90;;
7773;SDS011;3931;42.260;23.116;2023-03-13T05:11:49;20.00;;;9.37;;
7773;SDS011;3931;42.260;23.116;2023-03-13T05:14:15;24.57;;;8.93;;
7773;SDS011;3931;42.260;23.116;2023-03-13T05:16:41;14.17;;;7.70;;
7773;SDS011;3931;42.260;23.116;2023-03-13T05:19:07;19.97;;;8.20;;
7773;SDS011;3931;42.260;23.116;2023-03-13T05:21:33;39.70;;;18.50;;
7773;SDS011;3931;42.260;23.116;2023-03-13T05:23:59;30.20;;;13.57;;
7773;SDS011;3931;42.260;23.116;2023-03-13T05:26:25;42.03;;;20.93;;
7773;SDS011;3931;42.260;23.116;2023-03-13T05:28:51;26.30;;;13.60;;
7773;SDS011;3931;42.260;23.116;2023-03-13T05:31:18;17.20;;;7.00;;
7773;SDS011;3931;42.260;23.116;2023-03-13T05:33:44;15.90;;;6.43;;
7773;SDS011;3931;42.260;23.116;2023-03-13T05:36:10;21.93;;;10.17;;
7773;SDS011;3931;42.260;23.116;2023-03-13T05:38:36;56.03;;;18.70;;
7773;SDS011;3931;42.260;23.116;2023-03-13T05:41:02;58.80;;;23.77;;
7773;SDS011;3931;42.260;23.116;2023-03-13T05:43:29;78.47;;;23.43;;
7773;SDS011;3931;42.260;23.116;2023-03-13T05:45:55;20.60;;;7.77;;
7773;SDS011;3931;42.260;23.116;2023-03-13T05:48:21;46.83;;;14.60;;
7773;SDS011;3931;42.260;23.116;2023-03-13T05:50:47;59.13;;;12.40;;
7773;SDS011;3931;42.260;23.116;2023-03-13T05:53:13;30.90;;;9.70;;
7773;SDS011;3931;42.260;23.116;2023-03-13T05:55:39;26.70;;;8.67;;
7773;SDS011;3931;42.260;23.116;2023-03-13T05:58:07;13.00;;;6.60;;
7773;SDS011;3931;42.260;23.116;2023-03-13T06:00:33;20.63;;;8.47;;
7773;SDS011;3931;42.260;23.116;2023-03-13T06:02:59;65.67;;;9.47;;
7773;SDS011;3931;42.260;23.116;2023-03-13T06:05:25;38.33;;;10.60;;
7773;SDS011;3931;42.260;23.116;2023-03-13T06:07:52;23.43;;;8.70;;
7773;SDS011;3931;42.260;23.116;2023-03-13T06:10:18;20.60;;;10.10;;
7773;SDS011;3931;42.260;23.116;2023-03-13T06:12:44;38.60;;;12.40;;
7773;SDS011;3931;42.260;23.116;2023-03-13T06:15:17;19.30;;;9.23;;
7773;SDS011;3931;42.260;23.116;2023-03-13T06:17:43;27.23;;;7.53;;
7773;SDS011;3931;42.260;23.116;2023-03-13T06:20:09;12.17;;;5.40;;
7773;SDS011;3931;42.260;23.116;2023-03-13T06:22:36;8.70;;;5.70;;
7773;SDS011;3931;42.260;23.116;2023-03-13T06:25:03;11.50;;;6.77;;
7773;SDS011;3931;42.260;23.116;2023-03-13T06:27:30;8.70;;;5.53;;
7773;SDS011;3931;42.260;23.116;2023-03-13T06:29:56;46.10;;;8.47;;
7773;SDS011;3931;42.260;23.116;2023-03-13T06:32:22;9.80;;;5.63;;
7773;SDS011;3931;42.260;23.116;2023-03-13T06:34:48;21.10;;;5.13;;
7773;SDS011;3931;42.260;23.116;2023-03-13T06:37:14;10.40;;;5.87;;
7773;SDS011;3931;42.260;23.116;2023-03-13T06:39:40;16.00;;;9.80;;
7773;SDS011;3931;42.260;23.116;2023-03-13T06:42:07;9.80;;;5.97;;
7773;SDS011;3931;42.260;23.116;2023-03-13T06:44:33;15.40;;;7.60;;
7773;SDS011;3931;42.260;23.116;2023-03-13T06:46:59;11.60;;;6.30;;
7773;SDS011;3931;42.260;23.116;2023-03-13T06:49:25;11.50;;;6.70;;
7773;SDS011;3931;42.260;23.116;2023-03-13T06:51:51;14.97;;;7.60;;
7773;SDS011;3931;42.260;23.116;2023-03-13T06:54:17;27.17;;;6.80;;
7773;SDS011;3931;42.260;23.116;2023-03-13T06:56:43;11.53;;;6.57;;
7773;SDS011;3931;42.260;23.116;2023-03-13T06:59:10;27.17;;;8.10;;
7773;SDS011;3931;42.260;23.116;2023-03-13T07:01:36;16.70;;;7.27;;
7773;SDS011;3931;42.260;23.116;2023-03-13T07:04:02;25.53;;;15.33;;
7773;SDS011;3931;42.260;23.116;2023-03-13T07:06:28;14.37;;;7.20;;
7773;SDS011;3931;42.260;23.116;2023-03-13T07:08:54;12.90;;;6.60;;
7773;SDS011;3931;42.260;23.116;2023-03-13T07:11:20;15.27;;;6.63;;
7773;SDS011;3931;42.260;23.116;2023-03-13T07:13:46;10.23;;;6.50;;
7773;SDS011;3931;42.260;23.116;2023-03-13T07:16:12;32.67;;;7.10;;
7773;SDS011;3931;42.260;23.116;2023-03-13T07:18:38;12.43;;;5.97;;
7773;SDS011;3931;42.260;23.116;2023-03-13T07:21:06;9.93;;;6.00;;
7773;SDS011;3931;42.260;23.116;2023-03-13T07:23:34;10.20;;;5.60;;
7773;SDS011;3931;42.260;23.116;2023-03-13T07:26:00;13.60;;;6.33;;
7773;SDS011;3931;42.260;23.116;2023-03-13T07:28:28;13.27;;;6.90;;
7773;SDS011;3931;42.260;23.116;2023-03-13T07:31:01;11.53;;;6.13;;
7773;SDS011;3931;42.260;23.116;2023-03-13T07:33:29;10.57;;;5.50;;
7773;SDS011;3931;42.260;23.116;2023-03-13T07:35:55;61.47;;;7.40;;
7773;SDS011;3931;42.260;23.116;2023-03-13T07:38:22;104.77;;;10.53;;
7773;SDS011;3931;42.260;23.116;2023-03-13T07:40:48;53.30;;;9.13;;
7773;SDS011;3931;42.260;23.116;2023-03-13T07:43:15;23.70;;;6.63;;
7773;SDS011;3931;42.260;23.116;2023-03-13T07:45:48;39.37;;;8.50;;
7773;SDS011;3931;42.260;23.116;2023-03-13T07:48:16;19.13;;;6.63;;
7773;SDS011;3931;42.260;23.116;2023-03-13T07:50:42;27.17;;;6.43;;
7773;SDS011;3931;42.260;23.116;2023-03-13T07:53:08;17.57;;;8.20;;
7773;SDS011;3931;42.260;23.116;2023-03-13T07:55:34;11.20;;;4.70;;
7773;SDS011;3931;42.260;23.116;2023-03-13T07:58:00;17.70;;;5.13;;
7773;SDS011;3931;42.260;23.116;2023-03-13T08:00:26;8.50;;;4.90;;
7773;SDS011;3931;42.260;23.116;2023-03-13T08:02:52;9.37;;;4.10;;
7773;SDS011;3931;42.260;23.116;2023-03-13T08:05:18;24.97;;;9.50;;
7773;SDS011;3931;42.260;23.116;2023-03-13T08:07:45;14.17;;;4.43;;
7773;SDS011;3931;42.260;23.116;2023-03-13T08:10:11;40.17;;;5.77;;
7773;SDS011;3931;42.260;23.116;2023-03-13T08:12:37;11.40;;;4.80;;
7773;SDS011;3931;42.260;23.116;2023-03-13T08:15:03;14.70;;;4.47;;
7773;SDS011;3931;42.260;23.116;2023-03-13T08:17:30;11.53;;;4.47;;
7773;SDS011;3931;42.260;23.116;2023-03-13T08:19:56;6.20;;;3.97;;
7773;SDS011;3931;42.260;23.116;2023-03-13T08:22:22;28.47;;;5.70;;
7773;SDS011;3931;42.260;23.116;2023-03-13T08:24:49;14.87;;;4.30;;
7773;SDS011;3931;42.260;23.116;2023-03-13T08:27:15;9.40;;;4.20;;
7773;SDS011;3931;42.260;23.116;2023-03-13T08:29:41;19.63;;;6.47;;
7773;SDS011;3931;42.260;23.116;2023-03-13T08:32:07;14.23;;;3.90;;
7773;SDS011;3931;42.260;23.116;2023-03-13T08:34:33;6.47;;;3.90;;
7773;SDS011;3931;42.260;23.116;2023-03-13T08:37:01;17.80;;;4.30;;
7773;SDS011;3931;42.260;23.116;2023-03-13T08:39:27;10.87;;;4.33;;
7773;SDS011;3931;42.260;23.116;2023-03-13T08:41:53;18.30;;;6.30;;
7773;SDS011;3931;42.260;23.116;2023-03-13T08:44:19;8.00;;;4.77;;
7773;SDS011;3931;42.260;23.116;2023-03-13T08:46:45;7.53;;;4.40;;
7773;SDS011;3931;42.260;23.116;2023-03-13T08:49:13;12.10;;;5.63;;
7773;SDS011;3931;42.260;23.116;2023-03-13T08:51:41;7.40;;;3.90;;
7773;SDS011;3931;42.260;23.116;2023-03-13T08:54:08;58.77;;;6.23;;
7773;SDS011;3931;42.260;23.116;2023-03-13T08:56:34;9.13;;;5.33;;
7773;SDS011;3931;42.260;23.116;2023-03-13T08:59:02;8.47;;;4.13;;
7773;SDS011;3931;42.260;23.116;2023-03-13T09:01:30;8.40;;;4.30;;
7773;SDS011;3931;42.260;23.116;2023-03-13T09:03:58;6.37;;;4.20;;
7773;SDS011;3931;42.260;23.116;2023-03-13T09:06:24;10.90;;;5.30;;
7773;SDS011;3931;42.260;23.116;2023-03-13T09:08:50;5.80;;;4.37;;
7773;SDS011;3931;42.260;23.116;2023-03-13T09:11:17;22.10;;;5.20;;
7773;SDS011;3931;42.260;23.116;2023-03-13T09:13:46;6.43;;;4.10;;
7773;SDS011;3931;42.260;23.116;2023-03-13T09:16:18;6.33;;;4.20;;
7773;SDS011;3931;42.260;23.116;2023-03-13T09:18:45;7.90;;;4.80;;
7773;SDS011;3931;42.260;23.116;2023-03-13T09:21:12;9.00;;;4.00;;
7773;SDS011;3931;42.260;23.116;2023-03-13T09:23:40;10.00;;;4.03;;
7773;SDS011;3931;42.260;23.116;2023-03-13T09:26:07;146.07;;;9.40;;
7773;SDS011;3931;42.260;23.116;2023-03-13T09:28:33;11.90;;;4.87;;
7773;SDS011;3931;42.260;23.116;2023-03-13T09:31:09;25.23;;;5.40;;
7773;SDS011;3931;42.260;23.116;2023-03-13T09:33:38;8.10;;;3.77;;
7773;SDS011;3931;42.260;23.116;2023-03-13T09:36:05;10.77;;;3.77;;
7773;SDS011;3931;42.260;23.116;2023-03-13T09:38:32;8.50;;;4.10;;
7773;SDS011;3931;42.260;23.116;2023-03-13T09:41:01;10.03;;;3.90;;
7773;SDS011;3931;42.260;23.116;2023-03-13T09:43:32;5.87;;;3.30;;
7773;SDS011;3931;42.260;23.116;2023-03-13T09:46:05;4.57;;;3.40;;
7773;SDS011;3931;42.260;23.116;2023-03-13T09:48:39;8.13;;;3.80;;
7773;SDS011;3931;42.260;23.116;2023-03-13T09:51:11;17.23;;;4.13;;
7773;SDS011;3931;42.260;23.116;2023-03-13T09:53:51;4.30;;;3.33;;
7773;SDS011;3931;42.260;23.116;2023-03-13T09:56:22;57.43;;;5.63;;
7773;SDS011;3931;42.260;23.116;2023-03-13T09:58:51;12.40;;;3.70;;
7773;SDS011;3931;42.260;23.116;2023-03-13T10:01:21;33.53;;;4.43;;
7773;SDS011;3931;42.260;23.116;2023-03-13T10:03:56;5.33;;;3.63;;
7773;SDS011;3931;42.260;23.116;2023-03-13T10:06:27;9.90;;;3.30;;
7773;SDS011;3931;42.260;23.116;2023-03-13T10:08:58;5.53;;;3.00;;
7773;SDS011;3931;42.260;23.116;2023-03-13T10:11:26;131.07;;;8.67;;
7773;SDS011;3931;42.260;23.116;2023-03-13T10:13:59;9.20;;;3.57;;
7773;SDS011;3931;42.260;23.116;2023-03-13T10:16:30;14.20;;;3.57;;
7773;SDS011;3931;42.260;23.116;2023-03-13T10:19:01;6.13;;;3.47;;
7773;SDS011;3931;42.260;23.116;2023-03-13T10:21:36;5.00;;;3.20;;
7773;SDS011;3931;42.260;23.116;2023-03-13T10:24:09;7.13;;;3.47;;
7773;SDS011;3931;42.260;23.116;2023-03-13T10:26:42;6.53;;;3.70;;
7773;SDS011;3931;42.260;23.116;2023-03-13T10:31:53;13.10;;;3.30;;
7773;SDS011;3931;42.260;23.116;2023-03-13T10:34:23;43.50;;;5.77;;
7773;SDS011;3931;42.260;23.116;2023-03-13T10:36:53;12.70;;;3.80;;
7773;SDS011;3931;42.260;23.116;2023-03-13T10:39:22;13.03;;;3.53;;
7773;SDS011;3931;42.260;23.116;2023-03-13T10:41:49;22.33;;;4.40;;
7773;SDS011;3931;42.260;23.116;2023-03-13T10:44:21;39.40;;;4.30;;
7773;SDS011;3931;42.260;23.116;2023-03-13T10:46:57;22.07;;;5.93;;
7773;SDS011;3931;42.260;23.116;2023-03-13T10:49:25;5.60;;;3.60;;
7773;SDS011;3931;42.260;23.116;2023-03-13T10:51:52;8.90;;;3.30;;
7773;SDS011;3931;42.260;23.116;2023-03-13T10:54:20;23.97;;;4.57;;
7773;SDS011;3931;42.260;23.116;2023-03-13T10:56:48;4.90;;;3.30;;
7773;SDS011;3931;42.260;23.116;2023-03-13T10:59:17;6.27;;;3.30;;
7773;SDS011;3931;42.260;23.116;2023-03-13T11:01:46;7.40;;;3.50;;
7773;SDS011;3931;42.260;23.116;2023-03-13T11:04:20;11.70;;;4.33;;
7773;SDS011;3931;42.260;23.116;2023-03-13T11:06:57;13.90;;;3.30;;
7773;SDS011;3931;42.260;23.116;2023-03-13T11:09:26;29.67;;;4.23;;
7773;SDS011;3931;42.260;23.116;2023-03-13T11:11:53;5.90;;;3.40;;
7773;SDS011;3931;42.260;23.116;2023-03-13T11:14:21;27.47;;;3.70;;
7773;SDS011;3931;42.260;23.116;2023-03-13T11:16:49;7.83;;;3.30;;
7773;SDS011;3931;42.260;23.116;2023-03-13T11:19:22;6.63;;;3.10;;
7773;SDS011;3931;42.260;23.116;2023-03-13T11:22:23;7.80;;;3.83;;
7773;SDS011;3931;42.260;23.116;2023-03-13T11:24:56;7.83;;;3.20;;
7773;SDS011;3931;42.260;23.116;2023-03-13T11:27:37;4.40;;;3.27;;
7773;SDS011;3931;42.260;23.116;2023-03-13T11:33:00;6.53;;;2.83;;
7773;SDS011;3931;42.260;23.116;2023-03-13T11:35:36;15.67;;;4.20;;
7773;SDS011;3931;42.260;23.116;2023-03-13T11:38:07;7.47;;;3.80;;
7773;SDS011;3931;42.260;23.116;2023-03-13T11:40:38;7.30;;;3.10;;
7773;SDS011;3931;42.260;23.116;2023-03-13T11:43:15;5.00;;;3.70;;
7773;SDS011;3931;42.260;23.116;2023-03-13T11:46:01;9.00;;;3.57;;
7773;SDS011;3931;42.260;23.116;2023-03-13T11:51:30;5.90;;;2.60;;
7773;SDS011;3931;42.260;23.116;2023-03-13T11:54:10;4.63;;;3.30;;
7773;SDS011;3931;42.260;23.116;2023-03-13T11:56:52;23.77;;;2.93;;
7773;SDS011;3931;42.260;23.116;2023-03-13T11:59:24;32.73;;;3.67;;
7773;SDS011;3931;42.260;23.116;2023-03-13T12:02:01;5.10;;;2.63;;
7773;SDS011;3931;42.260;23.116;2023-03-13T12:04:33;16.20;;;3.27;;
7773;SDS011;3931;42.260;23.116;2023-03-13T12:07:04;8.83;;;3.40;;
7773;SDS011;3931;42.260;23.116;2023-03-13T12:09:40;9.03;;;3.50;;
7773;SDS011;3931;42.260;23.116;2023-03-13T12:12:11;4.43;;;2.53;;
7773;SDS011;3931;42.260;23.116;2023-03-13T12:14:44;6.13;;;3.30;;
7773;SDS011;3931;42.260;23.116;2023-03-13T12:17:28;8.37;;;3.17;;
7773;SDS011;3931;42.260;23.116;2023-03-13T12:20:00;8.00;;;5.20;;
7773;SDS011;3931;42.260;23.116;2023-03-13T12:22:34;6.10;;;3.10;;
7773;SDS011;3931;42.260;23.116;2023-03-13T12:25:05;5.67;;;2.70;;
7773;SDS011;3931;42.260;23.116;2023-03-13T12:27:38;5.93;;;4.23;;
7773;SDS011;3931;42.260;23.116;2023-03-13T12:30:10;12.23;;;6.47;;
7773;SDS011;3931;42.260;23.116;2023-03-13T12:32:48;45.77;;;6.60;;
7773;SDS011;3931;42.260;23.116;2023-03-13T12:35:23;8.20;;;2.83;;
7773;SDS011;3931;42.260;23.116;2023-03-13T12:37:53;17.87;;;4.00;;
7773;SDS011;3931;42.260;23.116;2023-03-13T12:40:26;25.20;;;3.47;;
7773;SDS011;3931;42.260;23.116;2023-03-13T12:43:00;6.57;;;2.90;;
7773;SDS011;3931;42.260;23.116;2023-03-13T12:45:29;9.90;;;3.43;;
7773;SDS011;3931;42.260;23.116;2023-03-13T12:48:07;13.13;;;3.73;;
7773;SDS011;3931;42.260;23.116;2023-03-13T12:51:17;5.20;;;3.57;;
7773;SDS011;3931;42.260;23.116;2023-03-13T12:56:46;4.23;;;2.60;;
7773;SDS011;3931;42.260;23.116;2023-03-13T12:59:27;4.67;;;2.83;;
7773;SDS011;3931;42.260;23.116;2023-03-13T13:01:58;7.07;;;2.80;;
7773;SDS011;3931;42.260;23.116;2023-03-13T13:04:27;8.43;;;2.87;;
7773;SDS011;3931;42.260;23.116;2023-03-13T13:06:57;5.63;;;3.30;;
7773;SDS011;3931;42.260;23.116;2023-03-13T13:09:27;6.33;;;2.77;;
7773;SDS011;3931;42.260;23.116;2023-03-13T13:11:56;16.13;;;3.27;;
7773;SDS011;3931;42.260;23.116;2023-03-13T13:17:27;26.97;;;4.20;;
7773;SDS011;3931;42.260;23.116;2023-03-13T13:23:31;17.90;;;3.97;;
7773;SDS011;3931;42.260;23.116;2023-03-13T13:35:21;31.83;;;4.20;;
7773;SDS011;3931;42.260;23.116;2023-03-13T13:41:01;15.33;;;4.10;;
7773;SDS011;3931;42.260;23.116;2023-03-13T13:43:30;25.23;;;3.40;;
7773;SDS011;3931;42.260;23.116;2023-03-13T13:45:59;38.30;;;4.13;;
7773;SDS011;3931;42.260;23.116;2023-03-13T13:48:33;118.77;;;11.03;;
7773;SDS011;3931;42.260;23.116;2023-03-13T13:51:20;135.83;;;6.60;;
7773;SDS011;3931;42.260;23.116;2023-03-13T13:53:49;11.63;;;2.50;;
7773;SDS011;3931;42.260;23.116;2023-03-13T13:59:28;42.47;;;4.63;;
7773;SDS011;3931;42.260;23.116;2023-03-13T14:02:10;13.80;;;2.87;;
7773;SDS011;3931;42.260;23.116;2023-03-13T14:04:42;181.03;;;9.47;;
7773;SDS011;3931;42.260;23.116;2023-03-13T14:07:15;11.47;;;3.10;;
7773;SDS011;3931;42.260;23.116;2023-03-13T14:09:46;17.50;;;3.13;;
7773;SDS011;3931;42.260;23.116;2023-03-13T14:12:24;27.10;;;3.57;;
7773;SDS011;3931;42.260;23.116;2023-03-13T14:15:08;5.27;;;2.63;;
7773;SDS011;3931;42.260;23.116;2023-03-13T14:17:40;27.87;;;5.90;;
7773;SDS011;3931;42.260;23.116;2023-03-13T14:20:18;25.40;;;5.70;;
7773;SDS011;3931;42.260;23.116;2023-03-13T14:22:48;14.20;;;4.60;;
7773;SDS011;3931;42.260;23.116;2023-03-13T14:25:15;4.17;;;3.23;;
7773;SDS011;3931;42.260;23.116;2023-03-13T14:27:42;32.03;;;3.97;;
7773;SDS011;3931;42.260;23.116;2023-03-13T14:30:08;25.73;;;5.17;;
7773;SDS011;3931;42.260;23.116;2023-03-13T14:32:35;8.40;;;3.50;;
7773;SDS011;3931;42.260;23.116;2023-03-13T14:35:02;20.43;;;4.33;;
7773;SDS011;3931;42.260;23.116;2023-03-13T14:37:33;45.33;;;6.20;;
7773;SDS011;3931;42.260;23.116;2023-03-13T14:40:04;54.70;;;4.20;;
7773;SDS011;3931;42.260;23.116;2023-03-13T14:42:36;33.33;;;5.73;;
7773;SDS011;3931;42.260;23.116;2023-03-13T14:45:11;129.07;;;11.90;;
7773;SDS011;3931;42.260;23.116;2023-03-13T14:47:38;10.00;;;4.17;;
7773;SDS011;3931;42.260;23.116;2023-03-13T14:50:08;24.50;;;3.90;;
7773;SDS011;3931;42.260;23.116;2023-03-13T14:52:39;24.87;;;3.90;;
7773;SDS011;3931;42.260;23.116;2023-03-13T14:55:25;15.03;;;3.40;;
7773;SDS011;3931;42.260;23.116;2023-03-13T14:57:53;119.00;;;10.73;;
7773;SDS011;3931;42.260;23.116;2023-03-13T15:00:29;46.93;;;5.73;;
7773;SDS011;3931;42.260;23.116;2023-03-13T15:03:21;47.00;;;6.00;;
7773;SDS011;3931;42.260;23.116;2023-03-13T15:06:01;57.53;;;5.80;;
7773;SDS011;3931;42.260;23.116;2023-03-13T15:08:30;13.80;;;4.43;;
7773;SDS011;3931;42.260;23.116;2023-03-13T15:10:56;28.90;;;4.13;;
7773;SDS011;3931;42.260;23.116;2023-03-13T15:13:23;23.80;;;3.77;;
7773;SDS011;3931;42.260;23.116;2023-03-13T15:15:50;48.40;;;4.10;;
7773;SDS011;3931;42.260;23.116;2023-03-13T15:18:18;51.30;;;5.17;;
7773;SDS011;3931;42.260;23.116;2023-03-13T15:20:48;37.10;;;4.40;;
7773;SDS011;3931;42.260;23.116;2023-03-13T15:23:15;7.33;;;3.63;;
7773;SDS011;3931;42.260;23.116;2023-03-13T15:25:42;5.10;;;2.87;;
7773;SDS011;3931;42.260;23.116;2023-03-13T15:28:12;51.63;;;5.33;;
7773;SDS011;3931;42.260;23.116;2023-03-13T15:30:39;20.73;;;4.20;;
7773;SDS011;3931;42.260;23.116;2023-03-13T15:33:08;20.13;;;3.90;;
7773;SDS011;3931;42.260;23.116;2023-03-13T15:35:38;25.37;;;4.10;;